sensor_id;sensor_type;location;lat;lon;timestamp;temperature;humidity
9179;DHT22;71287;48.414;11.478;2024-03-25T00:01:26;5.30;99.90
9179;DHT22;71287;48.414;11.478;2024-03-25T00:03:54;5.30;99.90
9179;DHT22;71287;48.414;11.478;2024-03-25T00:06:20;5.30;99.90
9179;DHT22;71287;48.414;11.478;2024-03-25T00:08:47;5.30;99.90
9179;DHT22;71287;48.414;11.478;2024-03-25T00:11:13;5.30;99.90
9179;DHT22;71287;48.414;11.478;2024-03-25T00:13:39;5.30;99.90
9179;DHT22;71287;48.414;11.478;2024-03-25T00:16:06;5.30;99.90
9179;DHT22;71287;48.414;11.478;2024-03-25T00:18:33;5.30;99.90
9179;DHT22;71287;48.414;11.478;2024-03-25T00:21:00;5.30;99.90
9179;DHT22;71287;48.414;11.478;2024-03-25T00:23:27;5.30;99.90
9179;DHT22;71287;48.414;11.478;2024-03-25T00:25:53;5.30;99.90
9179;DHT22;71287;48.414;11.478;2024-03-25T00:28:20;5.30;99.90
9179;DHT22;71287;48.414;11.478;2024-03-25T00:30:45;5.20;99.90
9179;DHT22;71287;48.414;11.478;2024-03-25T00:33:12;5.30;99.90
9179;DHT22;71287;48.414;11.478;2024-03-25T00:35:38;5.30;99.90
9179;DHT22;71287;48.414;11.478;2024-03-25T00:38:06;5.30;99.90
9179;DHT22;71287;48.414;11.478;2024-03-25T00:40:32;5.30;99.90
9179;DHT22;71287;48.414;11.478;2024-03-25T00:42:59;5.30;99.90
9179;DHT22;71287;48.414;11.478;2024-03-25T00:45:25;5.30;99.90
9179;DHT22;71287;48.414;11.478;2024-03-25T00:47:56;5.30;99.90
9179;DHT22;71287;48.414;11.478;2024-03-25T00:50:21;5.30;99.90
9179;DHT22;71287;48.414;11.478;2024-03-25T00:52:48;5.30;99.90
9179;DHT22;71287;48.414;11.478;2024-03-25T00:55:15;5.30;99.90
9179;DHT22;71287;48.414;11.478;2024-03-25T00:57:42;5.30;99.90
9179;DHT22;71287;48.414;11.478;2024-03-25T01:00:10;5.30;99.90
9179;DHT22;71287;48.414;11.478;2024-03-25T01:02:37;5.30;99.90
9179;DHT22;71287;48.414;11.478;2024-03-25T01:05:03;5.30;99.90
9179;DHT22;71287;48.414;11.478;2024-03-25T01:07:30;5.30;99.90
9179;DHT22;71287;48.414;11.478;2024-03-25T01:09:56;5.30;99.90
9179;DHT22;71287;48.414;11.478;2024-03-25T01:12:25;5.30;99.90
9179;DHT22;71287;48.414;11.478;2024-03-25T01:14:51;5.30;99.90
9179;DHT22;71287;48.414;11.478;2024-03-25T01:17:18;5.30;99.90
9179;DHT22;71287;48.414;11.478;2024-03-25T01:19:43;5.30;99.90
9179;DHT22;71287;48.414;11.478;2024-03-25T01:22:10;5.30;99.90
9179;DHT22;71287;48.414;11.478;2024-03-25T01:24:36;5.30;99.90
9179;DHT22;71287;48.414;11.478;2024-03-25T01:27:03;5.30;99.90
9179;DHT22;71287;48.414;11.478;2024-03-25T01:29:31;5.40;99.90
9179;DHT22;71287;48.414;11.478;2024-03-25T01:31:58;5.40;99.90
9179;DHT22;71287;48.414;11.478;2024-03-25T01:34:24;5.40;99.90
9179;DHT22;71287;48.414;11.478;2024-03-25T01:36:51;5.40;99.90
9179;DHT22;71287;48.414;11.478;2024-03-25T01:39:17;5.40;99.90
9179;DHT22;71287;48.414;11.478;2024-03-25T01:41:44;5.40;99.90
9179;DHT22;71287;48.414;11.478;2024-03-25T01:44:10;5.40;99.90
9179;DHT22;71287;48.414;11.478;2024-03-25T01:46:39;5.40;99.90
9179;DHT22;71287;48.414;11.478;2024-03-25T01:49:06;5.40;99.90
9179;DHT22;71287;48.414;11.478;2024-03-25T01:51:33;5.40;99.90
9179;DHT22;71287;48.414;11.478;2024-03-25T01:54:01;5.30;99.90
9179;DHT22;71287;48.414;11.478;2024-03-25T01:56:31;5.30;99.90
9179;DHT22;71287;48.414;11.478;2024-03-25T01:58:57;5.30;99.90
9179;DHT22;71287;48.414;11.478;2024-03-25T02:01:24;5.30;99.90
9179;DHT22;71287;48.414;11.478;2024-03-25T02:03:52;5.20;99.90
9179;DHT22;71287;48.414;11.478;2024-03-25T02:06:21;5.20;99.90
9179;DHT22;71287;48.414;11.478;2024-03-25T02:08:48;5.10;99.90
9179;DHT22;71287;48.414;11.478;2024-03-25T02:11:15;5.00;99.90
9179;DHT22;71287;48.414;11.478;2024-03-25T02:13:41;5.00;99.90
9179;DHT22;71287;48.414;11.478;2024-03-25T02:16:08;4.90;99.90
9179;DHT22;71287;48.414;11.478;2024-03-25T02:18:34;5.00;99.90
9179;DHT22;71287;48.414;11.478;2024-03-25T02:21:02;4.90;99.90
9179;DHT22;71287;48.414;11.478;2024-03-25T02:23:28;4.90;99.90
9179;DHT22;71287;48.414;11.478;2024-03-25T02:25:57;4.90;99.90
9179;DHT22;71287;48.414;11.478;2024-03-25T02:28:23;4.90;99.90
9179;DHT22;71287;48.414;11.478;2024-03-25T02:30:49;4.90;99.90
9179;DHT22;71287;48.414;11.478;2024-03-25T02:33:15;4.90;99.90
9179;DHT22;71287;48.414;11.478;2024-03-25T02:35:43;5.00;99.90
9179;DHT22;71287;48.414;11.478;2024-03-25T02:38:10;5.00;99.90
9179;DHT22;71287;48.414;11.478;2024-03-25T02:40:37;5.00;99.90
9179;DHT22;71287;48.414;11.478;2024-03-25T02:43:05;4.90;99.90
9179;DHT22;71287;48.414;11.478;2024-03-25T02:45:33;4.90;99.90
9179;DHT22;71287;48.414;11.478;2024-03-25T02:47:59;4.80;99.90
9179;DHT22;71287;48.414;11.478;2024-03-25T02:50:25;4.70;99.90
9179;DHT22;71287;48.414;11.478;2024-03-25T02:52:52;4.70;99.90
9179;DHT22;71287;48.414;11.478;2024-03-25T02:55:18;4.60;99.90
9179;DHT22;71287;48.414;11.478;2024-03-25T02:57:44;4.60;99.90
9179;DHT22;71287;48.414;11.478;2024-03-25T03:00:13;4.60;99.90
9179;DHT22;71287;48.414;11.478;2024-03-25T03:02:39;4.50;99.90
9179;DHT22;71287;48.414;11.478;2024-03-25T03:05:07;4.50;99.90
9179;DHT22;71287;48.414;11.478;2024-03-25T03:07:33;4.40;99.90
9179;DHT22;71287;48.414;11.478;2024-03-25T03:10:00;4.40;99.90
9179;DHT22;71287;48.414;11.478;2024-03-25T03:12:26;4.40;99.90
9179;DHT22;71287;48.414;11.478;2024-03-25T03:14:52;4.40;99.90
9179;DHT22;71287;48.414;11.478;2024-03-25T03:17:19;4.40;99.90
9179;DHT22;71287;48.414;11.478;2024-03-25T03:19:46;4.40;99.90
9179;DHT22;71287;48.414;11.478;2024-03-25T03:22:12;4.40;99.90
9179;DHT22;71287;48.414;11.478;2024-03-25T03:24:39;4.40;99.90
9179;DHT22;71287;48.414;11.478;2024-03-25T03:27:05;4.40;99.90
9179;DHT22;71287;48.414;11.478;2024-03-25T03:29:32;4.30;99.90
9179;DHT22;71287;48.414;11.478;2024-03-25T03:31:57;4.30;99.90
9179;DHT22;71287;48.414;11.478;2024-03-25T03:34:26;4.30;99.90
9179;DHT22;71287;48.414;11.478;2024-03-25T03:36:52;4.30;99.90
9179;DHT22;71287;48.414;11.478;2024-03-25T03:39:19;4.30;99.90
9179;DHT22;71287;48.414;11.478;2024-03-25T03:41:45;4.20;99.90
9179;DHT22;71287;48.414;11.478;2024-03-25T03:44:11;4.30;99.90
9179;DHT22;71287;48.414;11.478;2024-03-25T03:46:38;4.30;99.90
9179;DHT22;71287;48.414;11.478;2024-03-25T03:49:05;4.30;99.90
9179;DHT22;71287;48.414;11.478;2024-03-25T03:51:32;4.20;99.90
9179;DHT22;71287;48.414;11.478;2024-03-25T03:53:59;4.20;99.90
9179;DHT22;71287;48.414;11.478;2024-03-25T03:56:24;4.20;99.90
9179;DHT22;71287;48.414;11.478;2024-03-25T03:58:51;4.20;99.90
9179;DHT22;71287;48.414;11.478;2024-03-25T04:01:17;4.10;99.90
9179;DHT22;71287;48.414;11.478;2024-03-25T04:03:44;4.10;99.90
9179;DHT22;71287;48.414;11.478;2024-03-25T04:06:11;4.10;99.90
9179;DHT22;71287;48.414;11.478;2024-03-25T04:08:39;4.00;99.90
9179;DHT22;71287;48.414;11.478;2024-03-25T04:11:06;4.00;99.90
9179;DHT22;71287;48.414;11.478;2024-03-25T04:13:33;4.00;99.90
9179;DHT22;71287;48.414;11.478;2024-03-25T04:16:01;4.00;99.90
9179;DHT22;71287;48.414;11.478;2024-03-25T04:18:29;4.00;99.90
9179;DHT22;71287;48.414;11.478;2024-03-25T04:20:55;3.90;99.90
9179;DHT22;71287;48.414;11.478;2024-03-25T04:23:22;3.90;99.90
9179;DHT22;71287;48.414;11.478;2024-03-25T04:25:49;3.90;99.90
9179;DHT22;71287;48.414;11.478;2024-03-25T04:28:16;3.90;99.90
9179;DHT22;71287;48.414;11.478;2024-03-25T04:30:42;3.80;99.90
9179;DHT22;71287;48.414;11.478;2024-03-25T04:33:09;3.80;99.90
9179;DHT22;71287;48.414;11.478;2024-03-25T04:35:35;3.80;99.90
9179;DHT22;71287;48.414;11.478;2024-03-25T04:38:01;3.80;99.90
9179;DHT22;71287;48.414;11.478;2024-03-25T04:40:28;3.80;99.90
9179;DHT22;71287;48.414;11.478;2024-03-25T04:42:55;3.80;99.90
9179;DHT22;71287;48.414;11.478;2024-03-25T04:45:21;3.80;99.90
9179;DHT22;71287;48.414;11.478;2024-03-25T04:47:47;3.80;99.90
9179;DHT22;71287;48.414;11.478;2024-03-25T04:50:13;3.70;99.90
9179;DHT22;71287;48.414;11.478;2024-03-25T04:52:38;3.70;99.90
9179;DHT22;71287;48.414;11.478;2024-03-25T04:55:05;3.70;99.90
9179;DHT22;71287;48.414;11.478;2024-03-25T04:57:31;3.70;99.90
9179;DHT22;71287;48.414;11.478;2024-03-25T04:59:58;3.70;99.90
9179;DHT22;71287;48.414;11.478;2024-03-25T05:02:24;3.60;99.90
9179;DHT22;71287;48.414;11.478;2024-03-25T05:04:50;3.60;99.90
9179;DHT22;71287;48.414;11.478;2024-03-25T05:07:16;3.60;99.90
9179;DHT22;71287;48.414;11.478;2024-03-25T05:09:41;3.60;99.90
9179;DHT22;71287;48.414;11.478;2024-03-25T05:12:08;3.60;99.90
9179;DHT22;71287;48.414;11.478;2024-03-25T05:14:33;3.60;99.90
9179;DHT22;71287;48.414;11.478;2024-03-25T05:17:01;3.60;99.90
9179;DHT22;71287;48.414;11.478;2024-03-25T05:19:26;3.60;99.90
9179;DHT22;71287;48.414;11.478;2024-03-25T05:21:52;3.70;99.90
9179;DHT22;71287;48.414;11.478;2024-03-25T05:24:18;3.70;99.90
9179;DHT22;71287;48.414;11.478;2024-03-25T05:26:44;3.80;99.90
9179;DHT22;71287;48.414;11.478;2024-03-25T05:29:10;3.90;99.90
9179;DHT22;71287;48.414;11.478;2024-03-25T05:31:36;4.00;99.90
9179;DHT22;71287;48.414;11.478;2024-03-25T05:34:03;4.10;99.90
9179;DHT22;71287;48.414;11.478;2024-03-25T05:36:29;4.20;99.90
9179;DHT22;71287;48.414;11.478;2024-03-25T05:38:55;4.40;99.90
9179;DHT22;71287;48.414;11.478;2024-03-25T05:41:21;4.80;99.90
9179;DHT22;71287;48.414;11.478;2024-03-25T05:43:46;5.20;99.90
9179;DHT22;71287;48.414;11.478;2024-03-25T05:46:12;5.60;99.90
9179;DHT22;71287;48.414;11.478;2024-03-25T05:48:38;6.10;99.90
9179;DHT22;71287;48.414;11.478;2024-03-25T05:51:06;6.60;99.90
9179;DHT22;71287;48.414;11.478;2024-03-25T05:53:32;7.10;99.90
9179;DHT22;71287;48.414;11.478;2024-03-25T05:55:58;7.70;99.90
9179;DHT22;71287;48.414;11.478;2024-03-25T05:58:24;8.20;99.90
9179;DHT22;71287;48.414;11.478;2024-03-25T06:00:49;8.70;99.90
9179;DHT22;71287;48.414;11.478;2024-03-25T06:03:16;9.10;99.90
9179;DHT22;71287;48.414;11.478;2024-03-25T06:05:42;9.60;99.90
9179;DHT22;71287;48.414;11.478;2024-03-25T06:08:09;9.80;99.90
9179;DHT22;71287;48.414;11.478;2024-03-25T06:10:36;9.70;99.90
9179;DHT22;71287;48.414;11.478;2024-03-25T06:13:02;9.60;99.50
9179;DHT22;71287;48.414;11.478;2024-03-25T06:15:28;9.50;99.20
9179;DHT22;71287;48.414;11.478;2024-03-25T06:17:54;9.20;98.90
9179;DHT22;71287;48.414;11.478;2024-03-25T06:20:20;9.10;98.80
9179;DHT22;71287;48.414;11.478;2024-03-25T06:22:46;8.90;98.70
9179;DHT22;71287;48.414;11.478;2024-03-25T06:25:13;8.80;98.60
9179;DHT22;71287;48.414;11.478;2024-03-25T06:27:39;8.70;98.60
9179;DHT22;71287;48.414;11.478;2024-03-25T06:30:06;8.60;98.40
9179;DHT22;71287;48.414;11.478;2024-03-25T06:32:50;8.50;98.40
9179;DHT22;71287;48.414;11.478;2024-03-25T06:35:34;8.40;98.40
9179;DHT22;71287;48.414;11.478;2024-03-25T06:38:00;8.40;98.30
9179;DHT22;71287;48.414;11.478;2024-03-25T06:40:27;8.30;98.20
9179;DHT22;71287;48.414;11.478;2024-03-25T06:42:53;8.30;98.30
9179;DHT22;71287;48.414;11.478;2024-03-25T06:45:19;8.50;98.30
9179;DHT22;71287;48.414;11.478;2024-03-25T06:47:45;8.70;98.10
9179;DHT22;71287;48.414;11.478;2024-03-25T06:50:10;8.80;97.90
9179;DHT22;71287;48.414;11.478;2024-03-25T06:52:36;9.10;97.50
9179;DHT22;71287;48.414;11.478;2024-03-25T06:55:02;9.20;97.20
9179;DHT22;71287;48.414;11.478;2024-03-25T06:57:29;10.80;96.10
9179;DHT22;71287;48.414;11.478;2024-03-25T06:59:55;14.30;93.50
9179;DHT22;71287;48.414;11.478;2024-03-25T07:02:21;14.80;90.90
9179;DHT22;71287;48.414;11.478;2024-03-25T07:04:47;13.90;90.30
9179;DHT22;71287;48.414;11.478;2024-03-25T07:07:13;14.30;90.50
9179;DHT22;71287;48.414;11.478;2024-03-25T07:09:39;16.00;89.30
9179;DHT22;71287;48.414;11.478;2024-03-25T07:12:05;17.80;86.60
9179;DHT22;71287;48.414;11.478;2024-03-25T07:14:33;20.20;80.50
9179;DHT22;71287;48.414;11.478;2024-03-25T07:16:58;21.80;70.60
9179;DHT22;71287;48.414;11.478;2024-03-25T07:19:24;23.80;61.90
9179;DHT22;71287;48.414;11.478;2024-03-25T07:21:50;26.30;54.10
9179;DHT22;71287;48.414;11.478;2024-03-25T07:24:16;28.40;48.20
9179;DHT22;71287;48.414;11.478;2024-03-25T07:26:42;30.20;43.50
9179;DHT22;71287;48.414;11.478;2024-03-25T07:29:08;31.60;40.20
9179;DHT22;71287;48.414;11.478;2024-03-25T07:31:35;32.80;37.50
9179;DHT22;71287;48.414;11.478;2024-03-25T07:34:01;34.00;35.80
9179;DHT22;71287;48.414;11.478;2024-03-25T07:36:26;35.00;34.00
9179;DHT22;71287;48.414;11.478;2024-03-25T07:38:52;35.90;32.30
9179;DHT22;71287;48.414;11.478;2024-03-25T07:41:18;36.80;31.30
9179;DHT22;71287;48.414;11.478;2024-03-25T07:43:44;37.70;29.90
9179;DHT22;71287;48.414;11.478;2024-03-25T07:46:10;38.40;29.30
9179;DHT22;71287;48.414;11.478;2024-03-25T07:48:37;39.10;28.70
9179;DHT22;71287;48.414;11.478;2024-03-25T07:51:03;39.70;28.20
9179;DHT22;71287;48.414;11.478;2024-03-25T07:53:29;40.50;27.30
9179;DHT22;71287;48.414;11.478;2024-03-25T07:55:55;41.10;26.60
9179;DHT22;71287;48.414;11.478;2024-03-25T07:58:20;41.80;26.40
9179;DHT22;71287;48.414;11.478;2024-03-25T08:00:46;42.40;25.70
9179;DHT22;71287;48.414;11.478;2024-03-25T08:03:12;42.70;25.60
9179;DHT22;71287;48.414;11.478;2024-03-25T08:05:39;43.20;25.10
9179;DHT22;71287;48.414;11.478;2024-03-25T08:08:06;43.70;24.40
9179;DHT22;71287;48.414;11.478;2024-03-25T08:10:32;42.50;24.40
9179;DHT22;71287;48.414;11.478;2024-03-25T08:12:57;42.00;24.70
9179;DHT22;71287;48.414;11.478;2024-03-25T08:15:23;42.50;24.50
9179;DHT22;71287;48.414;11.478;2024-03-25T08:17:49;42.70;24.30
9179;DHT22;71287;48.414;11.478;2024-03-25T08:20:15;38.40;25.10
9179;DHT22;71287;48.414;11.478;2024-03-25T08:22:42;33.50;27.60
9179;DHT22;71287;48.414;11.478;2024-03-25T08:25:08;29.80;30.30
9179;DHT22;71287;48.414;11.478;2024-03-25T08:27:34;27.00;32.60
9179;DHT22;71287;48.414;11.478;2024-03-25T08:30:00;25.00;35.50
9179;DHT22;71287;48.414;11.478;2024-03-25T08:32:25;23.70;37.20
9179;DHT22;71287;48.414;11.478;2024-03-25T08:34:51;22.70;38.80
9179;DHT22;71287;48.414;11.478;2024-03-25T08:37:17;22.00;40.30
9179;DHT22;71287;48.414;11.478;2024-03-25T08:39:44;21.60;41.00
9179;DHT22;71287;48.414;11.478;2024-03-25T08:42:10;21.40;41.50
9179;DHT22;71287;48.414;11.478;2024-03-25T08:44:36;21.10;41.90
9179;DHT22;71287;48.414;11.478;2024-03-25T08:47:01;20.60;42.00
9179;DHT22;71287;48.414;11.478;2024-03-25T08:49:27;20.30;42.00
9179;DHT22;71287;48.414;11.478;2024-03-25T08:51:53;19.70;42.40
9179;DHT22;71287;48.414;11.478;2024-03-25T08:54:19;19.20;43.50
9179;DHT22;71287;48.414;11.478;2024-03-25T08:56:46;18.90;43.80
9179;DHT22;71287;48.414;11.478;2024-03-25T08:59:12;18.70;44.10
9179;DHT22;71287;48.414;11.478;2024-03-25T09:01:38;18.70;44.70
9179;DHT22;71287;48.414;11.478;2024-03-25T09:04:04;18.70;44.90
9179;DHT22;71287;48.414;11.478;2024-03-25T09:06:29;18.70;44.70
9179;DHT22;71287;48.414;11.478;2024-03-25T09:08:55;18.70;45.40
9179;DHT22;71287;48.414;11.478;2024-03-25T09:11:39;18.80;47.20
9179;DHT22;71287;48.414;11.478;2024-03-25T09:14:07;18.70;46.20
9179;DHT22;71287;48.414;11.478;2024-03-25T09:16:32;18.30;45.60
9179;DHT22;71287;48.414;11.478;2024-03-25T09:18:58;17.70;46.00
9179;DHT22;71287;48.414;11.478;2024-03-25T09:21:24;17.10;46.60
9179;DHT22;71287;48.414;11.478;2024-03-25T09:23:50;16.50;46.90
9179;DHT22;71287;48.414;11.478;2024-03-25T09:26:16;16.10;47.70
9179;DHT22;71287;48.414;11.478;2024-03-25T09:28:41;15.90;48.60
9179;DHT22;71287;48.414;11.478;2024-03-25T09:31:09;16.00;48.90
9179;DHT22;71287;48.414;11.478;2024-03-25T09:33:34;16.10;48.80
9179;DHT22;71287;48.414;11.478;2024-03-25T09:36:00;16.50;48.90
9179;DHT22;71287;48.414;11.478;2024-03-25T09:38:26;16.70;49.20
9179;DHT22;71287;48.414;11.478;2024-03-25T09:40:53;17.10;49.40
9179;DHT22;71287;48.414;11.478;2024-03-25T09:43:23;17.70;48.90
9179;DHT22;71287;48.414;11.478;2024-03-25T09:45:51;18.10;48.50
9179;DHT22;71287;48.414;11.478;2024-03-25T09:48:19;18.30;48.50
9179;DHT22;71287;48.414;11.478;2024-03-25T09:50:47;18.50;47.90
9179;DHT22;71287;48.414;11.478;2024-03-25T09:53:14;18.70;47.90
9179;DHT22;71287;48.414;11.478;2024-03-25T09:55:40;18.90;47.90
9179;DHT22;71287;48.414;11.478;2024-03-25T09:58:07;18.90;48.10
9179;DHT22;71287;48.414;11.478;2024-03-25T10:00:33;18.70;47.00
9179;DHT22;71287;48.414;11.478;2024-03-25T10:02:59;18.30;46.20
9179;DHT22;71287;48.414;11.478;2024-03-25T10:05:26;17.70;45.70
9179;DHT22;71287;48.414;11.478;2024-03-25T10:07:52;17.20;46.70
9179;DHT22;71287;48.414;11.478;2024-03-25T10:10:19;16.90;48.50
9179;DHT22;71287;48.414;11.478;2024-03-25T10:12:45;16.80;49.60
9179;DHT22;71287;48.414;11.478;2024-03-25T10:15:15;16.70;48.60
9179;DHT22;71287;48.414;11.478;2024-03-25T10:17:41;16.50;48.00
9179;DHT22;71287;48.414;11.478;2024-03-25T10:20:08;16.40;48.10
9179;DHT22;71287;48.414;11.478;2024-03-25T10:22:42;16.50;48.30
9179;DHT22;71287;48.414;11.478;2024-03-25T10:25:18;16.70;48.80
9179;DHT22;71287;48.414;11.478;2024-03-25T10:27:53;16.70;48.80
9179;DHT22;71287;48.414;11.478;2024-03-25T10:30:19;16.60;48.70
9179;DHT22;71287;48.414;11.478;2024-03-25T10:32:45;16.50;49.40
9179;DHT22;71287;48.414;11.478;2024-03-25T10:35:11;16.60;50.10
9179;DHT22;71287;48.414;11.478;2024-03-25T10:37:38;16.70;50.00
9179;DHT22;71287;48.414;11.478;2024-03-25T10:40:08;16.90;50.30
9179;DHT22;71287;48.414;11.478;2024-03-25T10:42:39;17.00;49.80
9179;DHT22;71287;48.414;11.478;2024-03-25T10:45:09;17.00;48.40
9179;DHT22;71287;48.414;11.478;2024-03-25T10:47:35;17.00;48.10
9179;DHT22;71287;48.414;11.478;2024-03-25T10:50:06;17.00;48.10
9179;DHT22;71287;48.414;11.478;2024-03-25T10:52:35;16.80;47.20
9179;DHT22;71287;48.414;11.478;2024-03-25T10:55:01;16.60;48.20
9179;DHT22;71287;48.414;11.478;2024-03-25T10:57:29;16.70;49.20
9179;DHT22;71287;48.414;11.478;2024-03-25T10:59:57;16.70;50.20
9179;DHT22;71287;48.414;11.478;2024-03-25T11:02:23;16.80;50.30
9179;DHT22;71287;48.414;11.478;2024-03-25T11:04:50;16.90;49.30
9179;DHT22;71287;48.414;11.478;2024-03-25T11:07:16;17.00;47.70
9179;DHT22;71287;48.414;11.478;2024-03-25T11:09:42;17.10;46.90
9179;DHT22;71287;48.414;11.478;2024-03-25T11:12:10;17.30;47.00
9179;DHT22;71287;48.414;11.478;2024-03-25T11:14:38;17.20;46.40
9179;DHT22;71287;48.414;11.478;2024-03-25T11:17:14;17.30;46.60
9179;DHT22;71287;48.414;11.478;2024-03-25T11:19:40;17.30;46.00
9179;DHT22;71287;48.414;11.478;2024-03-25T11:22:07;17.10;46.00
9179;DHT22;71287;48.414;11.478;2024-03-25T11:24:34;17.10;46.00
9179;DHT22;71287;48.414;11.478;2024-03-25T11:27:01;17.10;46.20
9179;DHT22;71287;48.414;11.478;2024-03-25T11:29:27;16.90;47.50
9179;DHT22;71287;48.414;11.478;2024-03-25T11:31:55;16.70;46.90
9179;DHT22;71287;48.414;11.478;2024-03-25T11:34:22;16.50;47.50
9179;DHT22;71287;48.414;11.478;2024-03-25T11:36:48;16.30;47.00
9179;DHT22;71287;48.414;11.478;2024-03-25T11:39:14;16.20;47.50
9179;DHT22;71287;48.414;11.478;2024-03-25T11:41:42;15.90;46.80
9179;DHT22;71287;48.414;11.478;2024-03-25T11:44:08;15.70;48.00
9179;DHT22;71287;48.414;11.478;2024-03-25T11:46:36;15.70;47.30
9179;DHT22;71287;48.414;11.478;2024-03-25T11:49:05;15.80;47.50
9179;DHT22;71287;48.414;11.478;2024-03-25T11:51:31;16.00;47.60
9179;DHT22;71287;48.414;11.478;2024-03-25T11:53:57;16.10;46.70
9179;DHT22;71287;48.414;11.478;2024-03-25T11:56:23;16.30;46.80
9179;DHT22;71287;48.414;11.478;2024-03-25T11:58:49;16.40;45.30
9179;DHT22;71287;48.414;11.478;2024-03-25T12:01:15;16.50;45.30
9179;DHT22;71287;48.414;11.478;2024-03-25T12:03:40;16.40;45.70
9179;DHT22;71287;48.414;11.478;2024-03-25T12:06:08;16.40;46.30
9179;DHT22;71287;48.414;11.478;2024-03-25T12:08:34;16.40;45.30
9179;DHT22;71287;48.414;11.478;2024-03-25T12:11:00;16.30;44.60
9179;DHT22;71287;48.414;11.478;2024-03-25T12:13:43;16.20;44.70
9179;DHT22;71287;48.414;11.478;2024-03-25T12:16:09;16.10;45.30
9179;DHT22;71287;48.414;11.478;2024-03-25T12:18:36;16.00;46.50
9179;DHT22;71287;48.414;11.478;2024-03-25T12:21:04;15.90;46.30
9179;DHT22;71287;48.414;11.478;2024-03-25T12:23:32;15.90;45.50
9179;DHT22;71287;48.414;11.478;2024-03-25T12:25:59;15.80;44.80
9179;DHT22;71287;48.414;11.478;2024-03-25T12:28:25;15.70;44.90
9179;DHT22;71287;48.414;11.478;2024-03-25T12:30:51;15.50;45.30
9179;DHT22;71287;48.414;11.478;2024-03-25T12:33:17;15.40;45.50
9179;DHT22;71287;48.414;11.478;2024-03-25T12:35:45;15.30;46.30
9179;DHT22;71287;48.414;11.478;2024-03-25T12:38:24;15.20;46.10
9179;DHT22;71287;48.414;11.478;2024-03-25T12:40:52;15.00;45.20
9179;DHT22;71287;48.414;11.478;2024-03-25T12:43:18;14.70;44.40
9179;DHT22;71287;48.414;11.478;2024-03-25T12:45:44;14.60;44.70
9179;DHT22;71287;48.414;11.478;2024-03-25T12:48:10;14.50;45.20
9179;DHT22;71287;48.414;11.478;2024-03-25T12:50:36;14.50;44.70
9179;DHT22;71287;48.414;11.478;2024-03-25T12:53:02;14.50;44.90
9179;DHT22;71287;48.414;11.478;2024-03-25T12:55:28;14.60;45.50
9179;DHT22;71287;48.414;11.478;2024-03-25T12:57:55;14.80;45.40
9179;DHT22;71287;48.414;11.478;2024-03-25T13:00:21;14.90;45.20
9179;DHT22;71287;48.414;11.478;2024-03-25T13:02:47;14.80;44.80
9179;DHT22;71287;48.414;11.478;2024-03-25T13:05:13;14.60;44.50
9179;DHT22;71287;48.414;11.478;2024-03-25T13:07:39;14.20;42.90
9179;DHT22;71287;48.414;11.478;2024-03-25T13:10:06;13.80;42.90
9179;DHT22;71287;48.414;11.478;2024-03-25T13:12:32;13.60;44.40
9179;DHT22;71287;48.414;11.478;2024-03-25T13:14:59;13.60;44.90
9179;DHT22;71287;48.414;11.478;2024-03-25T13:17:25;13.60;45.50
9179;DHT22;71287;48.414;11.478;2024-03-25T13:19:51;13.70;45.90
9179;DHT22;71287;48.414;11.478;2024-03-25T13:22:17;13.70;45.10
9179;DHT22;71287;48.414;11.478;2024-03-25T13:24:42;13.60;44.90
9179;DHT22;71287;48.414;11.478;2024-03-25T13:27:08;13.50;43.70
9179;DHT22;71287;48.414;11.478;2024-03-25T13:29:34;13.30;43.70
9179;DHT22;71287;48.414;11.478;2024-03-25T13:32:01;13.10;43.40
9179;DHT22;71287;48.414;11.478;2024-03-25T13:34:27;13.00;43.80
9179;DHT22;71287;48.414;11.478;2024-03-25T13:36:53;12.90;44.30
9179;DHT22;71287;48.414;11.478;2024-03-25T13:39:19;12.90;44.70
9179;DHT22;71287;48.414;11.478;2024-03-25T13:41:45;13.00;45.60
9179;DHT22;71287;48.414;11.478;2024-03-25T13:44:10;13.10;46.20
9179;DHT22;71287;48.414;11.478;2024-03-25T13:46:36;13.10;45.90
9179;DHT22;71287;48.414;11.478;2024-03-25T13:49:03;13.00;46.00
9179;DHT22;71287;48.414;11.478;2024-03-25T13:51:29;12.80;45.90
9179;DHT22;71287;48.414;11.478;2024-03-25T13:53:55;12.70;46.30
9179;DHT22;71287;48.414;11.478;2024-03-25T13:56:21;12.50;46.30
9179;DHT22;71287;48.414;11.478;2024-03-25T13:58:47;12.40;45.80
9179;DHT22;71287;48.414;11.478;2024-03-25T14:01:12;12.30;46.60
9179;DHT22;71287;48.414;11.478;2024-03-25T14:03:38;12.20;47.10
9179;DHT22;71287;48.414;11.478;2024-03-25T14:06:06;12.10;46.70
9179;DHT22;71287;48.414;11.478;2024-03-25T14:08:31;11.90;45.90
9179;DHT22;71287;48.414;11.478;2024-03-25T14:10:57;11.80;45.80
9179;DHT22;71287;48.414;11.478;2024-03-25T14:13:24;11.80;46.30
9179;DHT22;71287;48.414;11.478;2024-03-25T14:15:50;11.80;46.70
9179;DHT22;71287;48.414;11.478;2024-03-25T14:18:16;11.80;47.40
9179;DHT22;71287;48.414;11.478;2024-03-25T14:20:42;11.90;48.60
9179;DHT22;71287;48.414;11.478;2024-03-25T14:23:09;12.00;47.30
9179;DHT22;71287;48.414;11.478;2024-03-25T14:25:35;12.00;46.30
9179;DHT22;71287;48.414;11.478;2024-03-25T14:28:01;12.00;46.30
9179;DHT22;71287;48.414;11.478;2024-03-25T14:30:27;12.00;45.70
9179;DHT22;71287;48.414;11.478;2024-03-25T14:32:52;11.80;46.50
9179;DHT22;71287;48.414;11.478;2024-03-25T14:35:18;11.70;46.20
9179;DHT22;71287;48.414;11.478;2024-03-25T14:37:44;11.60;45.70
9179;DHT22;71287;48.414;11.478;2024-03-25T14:40:12;11.50;46.50
9179;DHT22;71287;48.414;11.478;2024-03-25T14:42:38;11.40;46.60
9179;DHT22;71287;48.414;11.478;2024-03-25T14:45:04;11.40;45.80
9179;DHT22;71287;48.414;11.478;2024-03-25T14:47:30;11.40;44.80
9179;DHT22;71287;48.414;11.478;2024-03-25T14:49:56;11.30;45.90
9179;DHT22;71287;48.414;11.478;2024-03-25T14:52:22;11.30;46.60
9179;DHT22;71287;48.414;11.478;2024-03-25T14:54:48;11.30;47.40
9179;DHT22;71287;48.414;11.478;2024-03-25T14:57:15;11.30;47.50
9179;DHT22;71287;48.414;11.478;2024-03-25T14:59:41;11.30;47.20
9179;DHT22;71287;48.414;11.478;2024-03-25T15:02:07;11.30;47.70
9179;DHT22;71287;48.414;11.478;2024-03-25T15:04:32;11.30;47.00
9179;DHT22;71287;48.414;11.478;2024-03-25T15:06:58;11.20;46.90
9179;DHT22;71287;48.414;11.478;2024-03-25T15:09:24;11.10;47.50
9179;DHT22;71287;48.414;11.478;2024-03-25T15:11:50;11.10;48.70
9179;DHT22;71287;48.414;11.478;2024-03-25T15:14:17;11.00;49.00
9179;DHT22;71287;48.414;11.478;2024-03-25T15:16:43;10.80;49.10
9179;DHT22;71287;48.414;11.478;2024-03-25T15:19:09;10.70;48.60
9179;DHT22;71287;48.414;11.478;2024-03-25T15:21:35;10.60;49.00
9179;DHT22;71287;48.414;11.478;2024-03-25T15:24:01;10.60;48.40
9179;DHT22;71287;48.414;11.478;2024-03-25T15:26:27;10.60;48.10
9179;DHT22;71287;48.414;11.478;2024-03-25T15:28:53;10.60;49.50
9179;DHT22;71287;48.414;11.478;2024-03-25T15:31:20;10.60;49.60
9179;DHT22;71287;48.414;11.478;2024-03-25T15:33:46;10.50;49.50